createdAt,value
2018-06-22T00:00:42.064Z,11.80
2018-06-22T00:03:14.527Z,11.80
2018-06-22T00:05:46.927Z,11.80
2018-06-22T00:08:19.681Z,11.80
2018-06-22T00:10:52.127Z,11.70
2018-06-22T00:13:24.588Z,11.70
2018-06-22T00:15:57.015Z,11.70
2018-06-22T00:18:29.545Z,11.70
2018-06-22T00:21:02.010Z,11.60
2018-06-22T00:23:34.815Z,11.60
2018-06-22T00:26:07.236Z,11.70
2018-06-22T00:28:39.737Z,11.60
2018-06-22T00:31:12.210Z,11.70
2018-06-22T00:33:44.919Z,11.70
2018-06-22T00:36:17.335Z,11.70
2018-06-22T00:38:49.973Z,11.70
2018-06-22T00:41:22.450Z,11.70
2018-06-22T00:43:54.877Z,11.70
2018-06-22T00:46:27.272Z,11.70
2018-06-22T00:48:59.885Z,11.70
2018-06-22T00:51:32.329Z,11.70
2018-06-22T00:54:17.378Z,11.60
2018-06-22T00:56:49.813Z,11.50
2018-06-22T00:59:22.205Z,11.50
2018-06-22T01:01:54.618Z,11.50
2018-06-22T01:04:27.050Z,11.60
2018-06-22T01:06:59.439Z,11.60
2018-06-22T01:09:32.222Z,11.60
2018-06-22T01:12:04.964Z,11.40
2018-06-22T01:14:37.477Z,11.30
2018-06-22T01:17:09.903Z,11.50
2018-06-22T01:19:42.400Z,11.40
2018-06-22T01:22:15.069Z,11.30
2018-06-22T01:24:47.646Z,11.30
2018-06-22T01:27:20.090Z,11.40
2018-06-22T01:29:52.527Z,11.40
2018-06-22T01:32:25.015Z,11.30
2018-06-22T01:34:57.568Z,11.30
2018-06-22T01:37:30.239Z,11.30
2018-06-22T01:40:02.699Z,11.40
2018-06-22T01:42:35.122Z,11.30
2018-06-22T01:45:09.569Z,11.30
2018-06-22T01:47:42.337Z,11.30
2018-06-22T01:50:16.820Z,11.20
2018-06-22T01:52:49.341Z,11.20
2018-06-22T01:55:21.996Z,11.10
2018-06-22T01:57:54.449Z,11.10
2018-06-22T02:00:26.979Z,11.20
2018-06-22T02:03:01.446Z,11.20
2018-06-22T02:05:33.913Z,11.20
2018-06-22T02:08:06.330Z,11.20
2018-06-22T02:10:38.796Z,11.30
2018-06-22T02:13:12.761Z,11.30
2018-06-22T02:15:45.310Z,11.10
2018-06-22T02:18:18.868Z,11.10
2018-06-22T02:20:51.864Z,11.30
2018-06-22T02:23:24.525Z,11.30
2018-06-22T02:25:57.396Z,11.20
2018-06-22T02:28:30.892Z,11.20
2018-06-22T02:31:03.725Z,11.20
2018-06-22T02:33:40.148Z,11.20
2018-06-22T02:36:12.823Z,11.20
2018-06-22T02:38:45.252Z,11.20
2018-06-22T02:41:17.764Z,11.20
2018-06-22T02:43:50.181Z,11.20
2018-06-22T02:46:22.643Z,11.20
2018-06-22T02:48:55.101Z,11.20
2018-06-22T02:51:27.555Z,11.20
2018-06-22T02:54:00.051Z,11.20
2018-06-22T02:56:32.525Z,11.20
2018-06-22T02:59:05.199Z,11.20
2018-06-22T03:01:37.876Z,11.20
2018-06-22T03:04:10.356Z,11.20
2018-06-22T03:06:42.770Z,11.30
2018-06-22T03:09:15.243Z,11.30
2018-06-22T03:11:47.699Z,11.30
2018-06-22T03:14:20.914Z,11.40
2018-06-22T03:16:53.480Z,11.30
2018-06-22T03:19:26.097Z,11.20
2018-06-22T03:21:58.519Z,11.20
2018-06-22T03:24:30.920Z,11.20
2018-06-22T03:27:03.343Z,11.20
2018-06-22T03:29:35.782Z,11.30
2018-06-22T03:32:08.245Z,11.30
2018-06-22T03:34:40.739Z,11.40
2018-06-22T03:37:13.657Z,11.30
2018-06-22T03:39:46.535Z,11.30
2018-06-22T03:42:19.284Z,11.30
2018-06-22T03:44:52.259Z,11.30
2018-06-22T03:47:24.703Z,11.20
2018-06-22T03:49:57.665Z,11.20
2018-06-22T03:52:30.073Z,11.40
2018-06-22T03:55:02.867Z,11.50
2018-06-22T03:57:35.291Z,11.50
2018-06-22T04:00:08.028Z,11.50
2018-06-22T04:02:40.478Z,11.50
2018-06-22T04:05:12.996Z,11.50
2018-06-22T04:07:45.550Z,11.40
2018-06-22T04:10:18.050Z,11.40
2018-06-22T04:12:50.496Z,11.50
2018-06-22T04:15:29.647Z,11.40
2018-06-22T04:18:02.055Z,11.30
2018-06-22T04:20:34.621Z,11.30
2018-06-22T04:23:07.009Z,11.30
2018-06-22T04:25:39.507Z,11.40
2018-06-22T04:28:11.940Z,11.50
2018-06-22T04:30:44.469Z,11.60
2018-06-22T04:33:16.915Z,11.40
2018-06-22T04:35:50.605Z,11.50
2018-06-22T04:38:23.078Z,11.60
2018-06-22T04:40:55.561Z,11.60
2018-06-22T04:43:28.083Z,11.60
2018-06-22T04:46:01.176Z,11.60
2018-06-22T04:48:33.642Z,11.60
2018-06-22T04:51:06.165Z,11.50
2018-06-22T04:53:38.640Z,11.50
2018-06-22T04:56:12.729Z,11.60
2018-06-22T04:58:45.182Z,11.80
2018-06-22T05:01:17.622Z,11.70
2018-06-22T05:03:50.293Z,11.80
2018-06-22T05:06:22.747Z,11.80
2018-06-22T05:08:55.425Z,11.90
2018-06-22T05:11:28.125Z,11.90
2018-06-22T05:14:00.578Z,11.70
2018-06-22T05:16:33.132Z,11.70
2018-06-22T05:21:38.203Z,11.80
2018-06-22T05:24:10.642Z,11.70
2018-06-22T05:26:43.062Z,11.80
2018-06-22T05:29:15.756Z,12.00
2018-06-22T05:31:48.425Z,12.10
2018-06-22T05:34:20.870Z,12.20
2018-06-22T05:36:53.419Z,12.10
2018-06-22T05:39:26.003Z,12.10
2018-06-22T05:41:58.651Z,12.20
2018-06-22T05:44:31.083Z,12.20
2018-06-22T05:47:03.562Z,12.30
2018-06-22T05:49:36.048Z,12.30
2018-06-22T05:52:08.622Z,12.30
2018-06-22T05:54:41.192Z,12.40
2018-06-22T05:57:14.800Z,12.30
2018-06-22T05:59:47.278Z,12.40
2018-06-22T06:02:19.712Z,12.40
2018-06-22T06:04:52.221Z,12.40
2018-06-22T06:07:24.645Z,12.20
2018-06-22T06:09:57.188Z,12.20
2018-06-22T06:12:29.734Z,12.20
2018-06-22T06:15:02.206Z,12.20
2018-06-22T06:17:34.739Z,12.20
2018-06-22T06:20:08.178Z,12.30
2018-06-22T06:22:40.733Z,12.30
2018-06-22T06:25:13.227Z,12.30
2018-06-22T06:27:45.808Z,12.40
2018-06-22T06:30:18.243Z,12.60
2018-06-22T06:32:50.800Z,12.80
2018-06-22T06:35:23.258Z,12.60
2018-06-22T06:37:59.975Z,12.60
2018-06-22T06:40:32.947Z,12.60
2018-06-22T06:43:05.595Z,12.70
2018-06-22T06:45:38.345Z,12.80
2018-06-22T06:48:10.804Z,12.90
2018-06-22T06:50:43.223Z,12.90
2018-06-22T06:53:15.723Z,12.80
2018-06-22T06:55:48.210Z,12.80
2018-06-22T07:00:53.186Z,12.70
2018-06-22T07:03:25.633Z,12.80
2018-06-22T07:05:58.203Z,12.80
2018-06-22T07:08:30.780Z,12.80
2018-06-22T07:11:03.265Z,12.80
2018-06-22T07:13:35.867Z,12.80
2018-06-22T07:18:44.318Z,12.90
2018-06-22T07:21:17.833Z,13.10
2018-06-22T07:23:50.432Z,13.20
2018-06-22T07:26:23.481Z,13.30
2018-06-22T07:28:55.912Z,13.40
2018-06-22T07:31:28.508Z,13.40
2018-06-22T07:34:00.930Z,13.60
2018-06-22T07:36:33.354Z,13.70
2018-06-22T07:39:09.248Z,13.60
2018-06-22T07:41:41.766Z,13.50
2018-06-22T07:44:14.238Z,13.10
2018-06-22T07:46:46.781Z,13.00
2018-06-22T07:49:19.545Z,12.90
2018-06-22T07:51:52.989Z,12.80
2018-06-22T07:54:25.512Z,12.60
2018-06-22T07:56:58.033Z,12.50
2018-06-22T07:59:30.533Z,12.40
2018-06-22T08:02:03.263Z,12.60
2018-06-22T08:07:08.301Z,12.70
2018-06-22T08:09:40.933Z,12.60
2018-06-22T08:12:13.778Z,12.60
2018-06-22T08:14:46.272Z,12.70
2018-06-22T08:17:18.734Z,12.80
2018-06-22T08:19:51.375Z,12.80
2018-06-22T08:22:23.810Z,12.70
2018-06-22T08:24:56.246Z,12.70
2018-06-22T08:27:28.773Z,12.80
2018-06-22T08:30:01.291Z,12.90
2018-06-22T08:32:34.013Z,12.90
2018-06-22T08:35:06.853Z,13.00
2018-06-22T08:37:39.511Z,13.00
2018-06-22T08:40:12.764Z,13.10
2018-06-22T08:42:45.312Z,13.10
2018-06-22T08:45:17.907Z,13.10
2018-06-22T08:47:50.641Z,13.30
2018-06-22T08:50:23.460Z,13.50
2018-06-22T08:52:56.023Z,13.50
2018-06-22T08:55:28.533Z,13.60
2018-06-22T08:58:02.933Z,13.30
2018-06-22T09:00:35.553Z,12.90
2018-06-22T09:05:40.802Z,13.10
2018-06-22T09:08:13.626Z,13.20
2018-06-22T09:10:46.039Z,13.20
2018-06-22T09:13:18.532Z,13.30
2018-06-22T09:15:51.002Z,13.50
2018-06-22T09:18:24.020Z,13.60
2018-06-22T09:20:57.515Z,13.50
2018-06-22T09:23:30.168Z,13.90
2018-06-22T09:26:02.722Z,14.00
2018-06-22T09:28:35.397Z,14.20
2018-06-22T09:31:07.892Z,14.20
2018-06-22T09:33:42.906Z,14.00
2018-06-22T09:36:15.422Z,13.60
2018-06-22T09:38:48.244Z,13.30
2018-06-22T09:41:23.030Z,13.10
2018-06-22T09:43:55.493Z,13.30
2018-06-22T09:46:27.963Z,13.20
2018-06-22T09:49:00.475Z,13.00
2018-06-22T09:51:32.955Z,13.10
2018-06-22T09:54:05.443Z,13.40
2018-06-22T09:56:38.127Z,13.80
2018-06-22T09:59:10.650Z,14.10
2018-06-22T10:01:43.752Z,14.40
2018-06-22T10:04:16.238Z,14.60
2018-06-22T10:06:49.674Z,15.10
2018-06-22T10:09:22.980Z,15.00
2018-06-22T10:11:55.879Z,14.60
2018-06-22T10:14:28.617Z,14.10
2018-06-22T10:17:01.397Z,13.60
2018-06-22T10:19:33.907Z,13.60
2018-06-22T10:22:06.871Z,13.50
2018-06-22T10:24:39.402Z,13.40
2018-06-22T10:27:12.203Z,13.50
2018-06-22T10:29:44.881Z,13.50
2018-06-22T10:32:18.547Z,13.50
2018-06-22T10:34:51.232Z,13.50
2018-06-22T10:37:23.748Z,13.60
2018-06-22T10:39:56.475Z,13.90
2018-06-22T10:42:30.064Z,13.90
2018-06-22T10:45:04.470Z,14.10
2018-06-22T10:47:37.795Z,14.50
2018-06-22T10:50:10.913Z,14.40
2018-06-22T10:52:43.669Z,14.50
2018-06-22T10:55:16.227Z,14.10
2018-06-22T10:57:48.875Z,14.00
2018-06-22T11:00:21.535Z,14.20
2018-06-22T11:02:54.333Z,14.30
2018-06-22T11:05:26.867Z,14.60
2018-06-22T11:07:59.503Z,15.00
2018-06-22T11:18:10.443Z,15.40
2018-06-22T11:20:42.979Z,15.00
2018-06-22T11:23:16.531Z,15.20
2018-06-22T11:25:49.323Z,15.30
2018-06-22T11:33:28.516Z,15.60
2018-06-22T11:36:01.102Z,15.60
2018-06-22T11:38:34.478Z,15.60
2018-06-22T11:43:40.257Z,15.80
2018-06-22T11:46:12.852Z,15.90
2018-06-22T11:48:45.653Z,15.90
2018-06-22T11:51:18.123Z,15.70
2018-06-22T11:53:50.579Z,15.50
2018-06-22T11:56:23.097Z,15.40
2018-06-22T11:58:55.562Z,15.90
2018-06-22T12:01:28.091Z,16.20
2018-06-22T12:04:00.822Z,16.50
2018-06-22T12:06:33.421Z,16.60
2018-06-22T12:09:08.712Z,16.80
2018-06-22T12:11:41.915Z,16.60
2018-06-22T12:14:16.684Z,17.00
2018-06-22T12:16:49.497Z,17.40
2018-06-22T12:19:22.084Z,17.30
2018-06-22T12:21:54.591Z,17.20
2018-06-22T12:24:27.218Z,16.90
2018-06-22T12:27:00.879Z,16.80
2018-06-22T12:29:33.355Z,16.90
2018-06-22T12:32:05.854Z,16.90
2018-06-22T12:34:38.357Z,16.90
2018-06-22T12:37:10.966Z,17.00
2018-06-22T12:39:47.364Z,17.40
2018-06-22T12:42:23.844Z,17.20
2018-06-22T12:44:57.514Z,17.00
2018-06-22T12:47:30.632Z,17.30
2018-06-22T12:50:03.567Z,17.50
2018-06-22T12:52:36.426Z,17.70
2018-06-22T12:55:09.441Z,17.60
2018-06-22T12:57:41.952Z,17.80
2018-06-22T13:00:14.437Z,17.90
2018-06-22T13:02:46.870Z,18.10
2018-06-22T13:05:20.236Z,17.80
2018-06-22T13:07:52.767Z,17.50
2018-06-22T13:10:25.313Z,17.60
2018-06-22T13:12:57.861Z,17.90
2018-06-22T13:15:30.485Z,17.90
2018-06-22T13:18:03.392Z,17.90
2018-06-22T13:23:08.614Z,17.70
2018-06-22T13:25:41.287Z,17.50
2018-06-22T13:30:46.362Z,17.60
2018-06-22T13:33:18.804Z,18.00
2018-06-22T13:35:51.375Z,18.30
2018-06-22T13:38:24.422Z,18.50
2018-06-22T13:40:57.025Z,18.90
2018-06-22T13:43:29.929Z,18.60
2018-06-22T13:46:02.710Z,18.70
2018-06-22T13:48:35.194Z,19.10
2018-06-22T13:51:07.843Z,18.60
2018-06-22T13:53:40.354Z,18.30
2018-06-22T13:56:13.111Z,18.00
2018-06-22T13:58:45.689Z,18.00
2018-06-22T14:01:18.222Z,18.40
2018-06-22T14:03:56.451Z,18.90
2018-06-22T14:06:35.219Z,19.20
2018-06-22T14:09:10.594Z,18.90
2018-06-22T14:11:43.726Z,18.60
2018-06-22T14:14:16.271Z,18.30
2018-06-22T14:16:49.715Z,18.00
2018-06-22T14:19:22.328Z,17.80
2018-06-22T14:21:54.904Z,17.70
2018-06-22T14:24:27.555Z,17.80
2018-06-22T14:27:00.171Z,17.70
2018-06-22T14:29:32.810Z,17.50
2018-06-22T14:32:07.174Z,17.40
2018-06-22T14:34:39.866Z,17.50
2018-06-22T14:37:12.349Z,17.50
2018-06-22T14:39:44.857Z,17.60
2018-06-22T14:42:17.477Z,17.70
2018-06-22T14:44:50.059Z,17.90
2018-06-22T14:47:22.602Z,18.10
2018-06-22T14:49:55.132Z,18.20
2018-06-22T14:52:27.540Z,18.40
2018-06-22T14:55:05.984Z,18.60
2018-06-22T14:57:44.072Z,19.10
2018-06-22T15:00:22.325Z,19.10
2018-06-22T15:03:01.047Z,18.80
2018-06-22T15:05:39.531Z,18.80
2018-06-22T15:08:15.023Z,18.60
2018-06-22T15:10:47.461Z,18.40
2018-06-22T15:13:19.979Z,18.30
2018-06-22T15:18:25.567Z,18.20
2018-06-22T15:20:58.181Z,18.10
2018-06-22T15:23:30.716Z,18.10
2018-06-22T15:26:03.515Z,18.00
2018-06-22T15:28:36.666Z,18.00
2018-06-22T15:31:09.494Z,18.10
2018-06-22T15:33:47.489Z,18.00
2018-06-22T15:36:25.765Z,18.00
2018-06-22T15:39:04.073Z,18.10
2018-06-22T15:41:42.132Z,18.20
2018-06-22T15:45:21.355Z,18.30
2018-06-22T15:47:59.765Z,18.40
2018-06-22T15:50:38.117Z,18.90
2018-06-22T15:53:16.500Z,19.10
2018-06-22T15:55:50.966Z,19.30
2018-06-22T15:58:23.443Z,19.50
2018-06-22T16:00:57.082Z,19.30
2018-06-22T16:03:35.302Z,19.20
2018-06-22T16:06:08.953Z,19.30
2018-06-22T16:08:54.531Z,19.30
2018-06-22T16:11:29.420Z,19.30
2018-06-22T16:14:07.668Z,19.30
2018-06-22T16:16:46.229Z,19.40
2018-06-22T16:20:26.356Z,19.50
2018-06-22T16:23:04.749Z,19.30
2018-06-22T16:25:43.049Z,19.50
2018-06-22T16:28:15.836Z,19.40
2018-06-22T16:30:48.291Z,19.60
2018-06-22T16:33:20.971Z,19.50
2018-06-22T16:35:54.803Z,19.40
2018-06-22T16:38:27.240Z,19.50
2018-06-22T16:40:59.781Z,19.40
2018-06-22T16:43:32.319Z,19.50
2018-06-22T16:46:05.085Z,19.50
2018-06-22T16:48:37.645Z,19.40
2018-06-22T16:51:10.172Z,19.60
2018-06-22T16:53:42.742Z,19.80
2018-06-22T16:56:15.660Z,19.70
2018-06-22T16:58:48.442Z,19.80
2018-06-22T17:01:20.980Z,19.60
2018-06-22T17:03:53.511Z,19.30
2018-06-22T17:06:26.171Z,19.20
2018-06-22T17:09:04.641Z,19.40
2018-06-22T17:11:43.092Z,19.30
2018-06-22T17:14:21.407Z,19.20
2018-06-22T17:17:00.133Z,19.10
2018-06-22T17:19:32.675Z,18.90
2018-06-22T17:22:05.430Z,18.80
2018-06-22T17:24:37.914Z,18.80
2018-06-22T17:27:10.491Z,18.60
2018-06-22T17:29:42.915Z,18.70
2018-06-22T17:32:15.833Z,18.70
2018-06-22T17:34:49.714Z,18.60
2018-06-22T17:37:22.273Z,18.60
2018-06-22T17:39:54.777Z,18.70
2018-06-22T17:42:28.155Z,18.60
2018-06-22T17:45:00.723Z,18.70
2018-06-22T17:47:33.351Z,18.70
2018-06-22T17:50:11.646Z,18.50
2018-06-22T17:52:44.103Z,18.50
2018-06-22T17:55:16.677Z,18.50
2018-06-22T17:57:49.785Z,18.50
2018-06-22T18:06:16.170Z,18.60
2018-06-22T18:08:49.103Z,18.60
2018-06-22T18:11:27.954Z,18.40
2018-06-22T18:14:00.875Z,18.20
2018-06-22T18:16:33.812Z,18.20
2018-06-22T18:19:06.394Z,18.30
2018-06-22T18:21:39.085Z,18.40
2018-06-22T18:24:11.777Z,18.40
2018-06-22T18:26:44.295Z,18.20
2018-06-22T18:29:17.749Z,17.90
2018-06-22T18:31:50.617Z,17.80
2018-06-22T18:34:23.120Z,17.80
2018-06-22T18:36:56.237Z,17.70
2018-06-22T18:39:28.839Z,17.70
2018-06-22T18:42:01.599Z,17.60
2018-06-22T18:47:07.010Z,17.60
2018-06-22T18:49:39.641Z,17.60
2018-06-22T18:52:18.700Z,17.60
2018-06-22T18:54:59.128Z,17.50
2018-06-22T18:57:37.949Z,17.40
2018-06-22T19:00:16.599Z,17.40
2018-06-22T19:02:55.932Z,17.40
2018-06-22T19:05:31.931Z,17.40
2018-06-22T19:08:05.467Z,17.50
2018-06-22T19:10:39.981Z,17.40
2018-06-22T19:13:13.725Z,17.30
2018-06-22T19:15:46.447Z,17.30
2018-06-22T19:18:19.364Z,17.30
2018-06-22T19:20:53.824Z,17.30
2018-06-22T19:23:26.422Z,17.00
2018-06-22T19:25:59.271Z,16.90
2018-06-22T19:28:32.242Z,16.90
2018-06-22T19:31:05.404Z,16.80
2018-06-22T19:38:45.702Z,16.70
2018-06-22T19:41:18.261Z,16.70
2018-06-22T19:44:59.107Z,16.70
2018-06-22T19:47:37.406Z,16.50
2018-06-22T19:50:15.585Z,16.40
2018-06-22T19:52:54.010Z,16.50
2018-06-22T19:55:26.521Z,16.40
2018-06-22T19:58:01.759Z,16.50
2018-06-22T20:00:34.395Z,16.40
2018-06-22T20:03:07.630Z,16.20
2018-06-22T20:05:40.235Z,16.10
2018-06-22T20:08:12.728Z,16.10
2018-06-22T20:10:45.290Z,16.10
2018-06-22T20:13:18.778Z,16.00
2018-06-22T20:15:52.083Z,16.00
2018-06-22T20:18:25.344Z,15.90
2018-06-22T20:20:57.891Z,15.80
2018-06-22T20:23:30.622Z,15.80
2018-06-22T20:26:03.150Z,15.80
2018-06-22T20:28:35.643Z,15.80
2018-06-22T20:33:40.594Z,15.80
2018-06-22T20:36:18.998Z,15.80
2018-06-22T20:38:57.511Z,15.70
2018-06-22T20:41:35.945Z,15.70
2018-06-22T20:44:14.423Z,15.70
2018-06-22T20:46:52.644Z,15.70
2018-06-22T20:49:31.157Z,15.50
2018-06-22T20:52:03.750Z,15.50
2018-06-22T20:54:36.303Z,15.50
2018-06-22T20:57:09.529Z,15.50
2018-06-22T20:59:42.229Z,15.40
2018-06-22T21:02:16.081Z,15.30
2018-06-22T21:04:48.521Z,15.30
2018-06-22T21:07:21.122Z,15.30
2018-06-22T21:09:53.881Z,15.20
2018-06-22T21:12:40.286Z,15.20
2018-06-22T21:14:58.965Z,15.10
2018-06-22T21:17:31.411Z,15.10
2018-06-22T21:20:04.363Z,15.10
2018-06-22T21:22:36.956Z,15.10
2018-06-22T21:25:09.452Z,15.10
2018-06-22T21:27:47.609Z,15.10
2018-06-22T21:30:25.942Z,15.10
2018-06-22T21:33:04.172Z,15.00
2018-06-22T21:35:42.363Z,14.90
2018-06-22T21:38:20.541Z,14.90
2018-06-22T21:40:53.247Z,15.00
2018-06-22T21:45:58.335Z,14.90
2018-06-22T21:48:30.818Z,14.90
2018-06-22T21:51:03.468Z,14.90
2018-06-22T21:53:36.112Z,14.90
2018-06-22T21:56:08.524Z,14.90
2018-06-22T21:58:40.970Z,14.90
2018-06-22T22:01:14.410Z,14.90
2018-06-22T22:03:47.977Z,14.80
2018-06-22T22:06:20.420Z,14.90
2018-06-22T22:11:56.635Z,15.00
2018-06-22T22:14:29.098Z,15.00
2018-06-22T22:17:01.552Z,14.90
2018-06-22T22:19:34.193Z,14.90
2018-06-22T22:22:07.296Z,14.90
2018-06-22T22:24:39.982Z,14.80
2018-06-22T22:29:44.993Z,14.80
2018-06-22T22:32:17.484Z,14.70
2018-06-22T22:34:50.057Z,14.70
2018-06-22T22:37:22.519Z,14.70
2018-06-22T22:39:55.286Z,14.60
2018-06-22T22:42:27.902Z,14.60
2018-06-22T22:45:00.474Z,14.60
2018-06-22T22:47:32.906Z,14.60
2018-06-22T22:50:05.393Z,14.50
2018-06-22T22:52:37.959Z,14.40
2018-06-22T22:55:10.418Z,14.40
2018-06-22T22:57:42.820Z,14.30
2018-06-22T23:00:15.306Z,14.20
2018-06-22T23:02:47.825Z,14.20
2018-06-22T23:05:20.364Z,14.20
2018-06-22T23:07:52.814Z,14.20
2018-06-22T23:10:25.561Z,14.20
2018-06-22T23:12:58.104Z,14.10
2018-06-22T23:15:30.526Z,14.10
2018-06-22T23:18:03.054Z,14.00
2018-06-22T23:20:35.631Z,14.10
2018-06-22T23:23:20.937Z,14.00
2018-06-22T23:25:53.496Z,14.00
2018-06-22T23:28:26.222Z,13.90
2018-06-22T23:31:01.622Z,14.00
2018-06-22T23:33:34.318Z,13.90
2018-06-22T23:36:06.799Z,13.90
2018-06-22T23:38:39.216Z,13.90
2018-06-22T23:41:12.273Z,13.80
2018-06-22T23:43:44.662Z,13.60
2018-06-22T23:46:17.272Z,13.60
2018-06-22T23:48:49.713Z,13.40
2018-06-22T23:51:22.159Z,13.30
2018-06-22T23:53:54.982Z,13.20
2018-06-22T23:56:27.434Z,13.20
2018-06-22T23:58:59.835Z,13.10
